Time;durP1;ratioP1;P1;durP2;ratioP2;P2;SDS_P1;SDS_P2;PMS_P1;PMS_P2;Temp;Humidity;BMP_temperature;BMP_pressure;BME280_temperature;BME280_humidity;BME280_pressure;Samples;Min_cycle;Max_cycle;Signal;HPM_P1;HPM_P2
2023/03/16 00:01:38;;;;;;;114.65;20.80;;;10.00;79.50;;;;;;5043362;28;20116;-57
2023/03/16 00:04:03;;;;;;;134.93;21.48;;;10.00;79.60;;;;;;5043227;28;20079;-57
2023/03/16 00:06:29;;;;;;;132.50;20.73;;;10.00;79.60;;;;;;5026897;28;20068;-57
2023/03/16 00:08:57;;;;;;;121.53;19.92;;;9.90;79.80;;;;;;5043476;28;20040;-57
2023/03/16 00:11:24;;;;;;;108.10;18.42;;;9.90;80.00;;;;;;5043120;28;20108;-57
2023/03/16 00:13:50;;;;;;;127.53;19.70;;;9.90;80.00;;;;;;5044557;28;20108;-57
2023/03/16 00:16:16;;;;;;;126.07;19.33;;;9.80;79.80;;;;;;5043508;28;20098;-57
2023/03/16 00:18:41;;;;;;;136.77;19.05;;;9.80;79.90;;;;;;5044366;28;20037;-57
2023/03/16 00:21:07;;;;;;;98.38;17.80;;;9.80;80.00;;;;;;5044677;28;20029;-57
2023/03/16 00:23:34;;;;;;;104.03;16.50;;;9.80;80.00;;;;;;5042923;28;20123;-56
2023/03/16 00:26:04;;;;;;;89.43;16.20;;;9.70;80.00;;;;;;5042981;28;20029;-57
2023/03/16 00:28:33;;;;;;;88.88;17.60;;;9.70;80.20;;;;;;5042915;28;20037;-57
2023/03/16 00:31:10;;;;;;;82.95;16.48;;;9.70;80.10;;;;;;5042996;28;20041;-57
2023/03/16 00:33:37;;;;;;;99.82;17.15;;;9.60;80.20;;;;;;5043165;28;20482;-57
2023/03/16 00:36:03;;;;;;;107.97;17.17;;;9.60;80.30;;;;;;5042704;28;20477;-57
2023/03/16 00:38:33;;;;;;;100.95;18.73;;;9.60;80.20;;;;;;5042829;28;20049;-57
2023/03/16 00:41:02;;;;;;;93.35;17.38;;;9.60;80.50;;;;;;5042860;28;20097;-57
2023/03/16 00:43:28;;;;;;;91.82;17.83;;;9.60;80.70;;;;;;5042996;28;20467;-57
2023/03/16 00:46:05;;;;;;;87.38;18.00;;;9.50;80.70;;;;;;5042953;28;20029;-57
2023/03/16 00:48:35;;;;;;;93.18;16.30;;;9.50;80.70;;;;;;5043023;28;20104;-57
2023/03/16 00:51:03;;;;;;;73.57;16.83;;;9.50;80.80;;;;;;5045522;28;20061;-58
2023/03/16 00:53:29;;;;;;;74.40;15.43;;;9.40;81.40;;;;;;5046658;28;20029;-57
2023/03/16 00:55:54;;;;;;;84.60;16.70;;;9.40;80.70;;;;;;5048138;28;20087;-57
2023/03/16 00:58:20;;;;;;;93.28;17.35;;;9.50;80.80;;;;;;5046469;28;20025;-58
2023/03/16 01:00:47;;;;;;;65.10;15.65;;;9.40;80.80;;;;;;5047721;28;20482;-57
2023/03/16 01:03:12;;;;;;;82.28;15.32;;;9.40;80.80;;;;;;5047669;28;20025;-57
2023/03/16 01:05:41;;;;;;;70.15;16.02;;;9.40;80.80;;;;;;5079510;28;20040;-58
2023/03/16 01:08:07;;;;;;;75.07;14.85;;;9.40;80.80;;;;;;5046367;28;20021;-57
2023/03/16 01:10:34;;;;;;;64.65;14.65;;;9.40;80.70;;;;;;5046349;28;20051;-57
2023/03/16 01:13:01;;;;;;;71.47;14.65;;;9.40;80.70;;;;;;5046334;28;20026;-57
2023/03/16 01:15:30;;;;;;;71.47;15.60;;;9.30;80.70;;;;;;5046193;28;20084;-57
2023/03/16 01:17:55;;;;;;;82.95;15.38;;;9.30;80.70;;;;;;5029523;28;20029;-57
2023/03/16 01:20:21;;;;;;;72.68;15.00;;;9.30;80.70;;;;;;5046207;28;20026;-56
2023/03/16 01:22:47;;;;;;;61.30;14.30;;;9.20;80.50;;;;;;5047597;28;20036;-57
2023/03/16 01:25:13;;;;;;;61.75;13.30;;;9.20;80.60;;;;;;5046160;28;20116;-57
2023/03/16 01:27:39;;;;;;;52.92;12.13;;;9.20;80.70;;;;;;5046154;28;20033;-57
2023/03/16 01:30:05;;;;;;;53.78;12.55;;;9.20;80.70;;;;;;5047321;28;20030;-57
2023/03/16 01:32:30;;;;;;;69.43;14.85;;;9.20;80.80;;;;;;5029306;28;20026;-57
2023/03/16 01:34:56;;;;;;;57.40;12.85;;;9.10;80.80;;;;;;5047505;28;20116;-57
2023/03/16 01:37:22;;;;;;;71.28;13.38;;;9.10;81.20;;;;;;5047557;28;20049;-57
2023/03/16 01:39:50;;;;;;;55.08;13.00;;;9.10;81.20;;;;;;5045942;28;20438;-57
2023/03/16 01:42:16;;;;;;;53.63;14.23;;;9.10;81.30;;;;;;5047113;28;20029;-57
2023/03/16 01:44:49;;;;;;;49.45;11.43;;;9.10;81.50;;;;;;5046937;28;20034;-57
2023/03/16 01:47:15;;;;;;;50.65;11.80;;;9.10;81.70;;;;;;5078925;28;20029;-57
2023/03/16 01:49:41;;;;;;;39.65;11.48;;;9.10;81.70;;;;;;5045376;28;20111;-57
2023/03/16 01:52:12;;;;;;;54.83;13.00;;;9.00;81.80;;;;;;5045291;28;20147;-57
2023/03/16 01:54:43;;;;;;;48.30;10.52;;;9.00;81.90;;;;;;5045883;28;20034;-57
2023/03/16 01:57:14;;;;;;;47.80;11.85;;;9.00;81.90;;;;;;5045528;28;20029;-57
2023/03/16 01:59:44;;;;;;;35.40;10.20;;;9.00;82.00;;;;;;5045424;28;20036;-57
2023/03/16 02:02:10;;;;;;;41.40;9.07;;;9.00;81.90;;;;;;5045101;28;20030;-57
2023/03/16 02:04:41;;;;;;;55.75;10.63;;;9.00;81.70;;;;;;5045277;28;20033;-57
2023/03/16 02:07:07;;;;;;;37.15;9.60;;;8.90;81.80;;;;;;5045414;28;20446;-57
2023/03/16 02:09:36;;;;;;;44.72;9.60;;;8.90;82.00;;;;;;5045203;28;20095;-57
2023/03/16 02:12:02;;;;;;;39.03;9.65;;;8.90;82.10;;;;;;5045172;28;20041;-57
2023/03/16 02:14:28;;;;;;;37.75;8.60;;;9.00;82.30;;;;;;5045221;28;20025;-57
2023/03/16 02:16:54;;;;;;;30.48;8.80;;;8.90;82.30;;;;;;5045066;28;20470;-57
2023/03/16 02:19:46;;;;;;;42.08;9.50;;;8.90;82.30;;;;;;5045028;28;20053;-57
2023/03/16 02:22:12;;;;;;;40.67;8.70;;;8.90;82.40;;;;;;5078192;28;20025;-57
2023/03/16 02:24:38;;;;;;;37.80;8.55;;;8.90;82.40;;;;;;5044825;28;20025;-56
2023/03/16 02:27:09;;;;;;;44.47;9.95;;;8.90;82.70;;;;;;5044761;28;20061;-56
2023/03/16 02:30:07;;;;;;;34.92;9.20;;;8.90;82.80;;;;;;5044954;28;20036;-56
2023/03/16 02:32:33;;;;;;;38.10;9.70;;;8.80;82.60;;;;;;5044778;28;20482;-56
2023/03/16 02:34:58;;;;;;;35.80;8.35;;;8.80;83.40;;;;;;5044829;28;20067;-56
2023/03/16 02:37:25;;;;;;;35.53;8.75;;;8.80;82.80;;;;;;5044838;28;20022;-56
2023/03/16 02:39:50;;;;;;;38.60;8.50;;;8.80;82.70;;;;;;5044651;28;20101;-56
2023/03/16 02:42:18;;;;;;;31.08;9.00;;;8.80;82.80;;;;;;5028010;28;20033;-56
2023/03/16 02:44:47;;;;;;;33.97;8.93;;;8.80;83.00;;;;;;5044423;28;20060;-56
2023/03/16 02:47:18;;;;;;;27.27;8.43;;;8.70;82.90;;;;;;5027813;28;20037;-56
2023/03/16 02:49:44;;;;;;;30.65;8.63;;;8.70;82.80;;;;;;5028282;28;20052;-56
2023/03/16 02:52:10;;;;;;;32.38;8.82;;;8.70;82.80;;;;;;5044248;28;20473;-56
2023/03/16 02:54:35;;;;;;;32.70;8.75;;;8.70;83.00;;;;;;5045684;28;20026;-56
2023/03/16 02:57:01;;;;;;;32.08;8.35;;;8.60;82.90;;;;;;5044197;28;20025;-56
2023/03/16 02:59:27;;;;;;;25.95;8.05;;;8.60;83.00;;;;;;5044033;28;20021;-56
2023/03/16 03:01:52;;;;;;;23.77;7.90;;;8.60;83.00;;;;;;5027586;28;20033;-55
2023/03/16 03:04:19;;;;;;;29.10;8.20;;;8.60;82.90;;;;;;5043993;28;20358;-56
2023/03/16 03:06:44;;;;;;;25.77;7.75;;;8.60;83.00;;;;;;5044328;28;20037;-56
2023/03/16 03:09:13;;;;;;;21.00;7.22;;;8.60;83.00;;;;;;5044121;28;20025;-56
2023/03/16 03:11:38;;;;;;;28.90;7.40;;;8.60;82.90;;;;;;5045225;28;20045;-56
2023/03/16 03:14:04;;;;;;;22.52;7.38;;;8.60;83.00;;;;;;5043405;28;20091;-55
2023/03/16 03:16:30;;;;;;;25.58;7.53;;;8.60;83.00;;;;;;5044024;28;20032;-56
2023/03/16 03:18:56;;;;;;;27.27;7.47;;;8.50;82.80;;;;;;5043951;28;20532;-56
2023/03/16 03:21:22;;;;;;;20.65;7.18;;;8.50;82.90;;;;;;5043683;28;20044;-56
2023/03/16 03:23:48;;;;;;;28.00;7.57;;;8.50;82.90;;;;;;5043719;28;20033;-56
2023/03/16 03:26:14;;;;;;;24.70;7.75;;;8.50;82.80;;;;;;5043836;28;20067;-56
2023/03/16 03:28:40;;;;;;;22.48;7.50;;;8.50;82.70;;;;;;5044161;28;20049;-56
2023/03/16 03:31:06;;;;;;;22.02;7.38;;;8.50;83.00;;;;;;5043760;28;20034;-56
2023/03/16 03:33:32;;;;;;;19.52;6.65;;;8.50;82.80;;;;;;5043780;28;20033;-56
2023/03/16 03:35:59;;;;;;;23.45;6.60;;;8.40;82.80;;;;;;5044956;28;20092;-55
2023/03/16 03:38:24;;;;;;;21.00;6.78;;;8.50;83.00;;;;;;5043691;28;20030;-56
2023/03/16 03:40:51;;;;;;;22.80;7.00;;;8.40;83.00;;;;;;5043538;28;20029;-56
2023/03/16 03:43:16;;;;;;;39.28;8.02;;;8.40;83.00;;;;;;5043603;28;20021;-56
2023/03/16 03:45:42;;;;;;;22.13;7.32;;;8.40;83.10;;;;;;5045025;28;20085;-56
2023/03/16 03:48:07;;;;;;;18.65;6.38;;;8.40;83.20;;;;;;5043685;28;20026;-55
2023/03/16 03:50:33;;;;;;;19.15;6.90;;;8.40;83.10;;;;;;5043364;28;20033;-56
2023/03/16 03:52:58;;;;;;;22.77;7.65;;;8.40;83.00;;;;;;5044784;28;20068;-56
2023/03/16 03:55:24;;;;;;;24.00;7.15;;;8.40;83.00;;;;;;5043402;28;20029;-56
2023/03/16 03:57:49;;;;;;;18.85;6.97;;;8.40;83.00;;;;;;5044801;28;20530;-56
2023/03/16 04:00:19;;;;;;;22.80;7.22;;;8.30;82.90;;;;;;5044656;28;20045;-56
2023/03/16 04:02:44;;;;;;;19.65;6.25;;;8.30;82.90;;;;;;5043506;28;20089;-56
2023/03/16 04:05:10;;;;;;;18.48;6.80;;;8.30;82.80;;;;;;5026690;28;20033;-56
2023/03/16 04:07:36;;;;;;;18.17;6.85;;;8.30;82.90;;;;;;5043456;28;20121;-56
2023/03/16 04:10:01;;;;;;;19.60;6.07;;;8.20;82.80;;;;;;5044503;28;20044;-56
2023/03/16 04:12:27;;;;;;;19.15;6.15;;;8.20;82.70;;;;;;5043256;28;20049;-56
2023/03/16 04:14:52;;;;;;;22.05;6.85;;;8.20;82.70;;;;;;5076237;28;20030;-56
2023/03/16 04:17:18;;;;;;;11.30;5.80;;;8.20;82.70;;;;;;5044706;28;20038;-55
2023/03/16 04:19:43;;;;;;;19.85;5.90;;;8.10;82.60;;;;;;5043050;28;20028;-55
2023/03/16 04:22:09;;;;;;;15.32;5.40;;;8.10;82.60;;;;;;5044608;28;20033;-56
2023/03/16 04:24:35;;;;;;;20.65;5.47;;;8.10;82.60;;;;;;5045259;28;20032;-56
2023/03/16 04:27:01;;;;;;;11.73;5.18;;;8.10;82.60;;;;;;5048510;28;20029;-56
2023/03/16 04:29:27;;;;;;;17.65;6.20;;;8.00;82.60;;;;;;5047029;28;20026;-56
2023/03/16 04:31:53;;;;;;;16.75;5.60;;;8.00;82.60;;;;;;5047106;28;20079;-56
2023/03/16 04:34:23;;;;;;;14.00;5.38;;;8.00;82.60;;;;;;5046809;28;20033;-56
2023/03/16 04:36:52;;;;;;;12.07;4.90;;;8.00;82.60;;;;;;5048376;28;20036;-56
2023/03/16 04:39:21;;;;;;;11.55;4.63;;;8.00;82.50;;;;;;5046701;28;20052;-56
2023/03/16 04:41:47;;;;;;;13.10;4.40;;;7.90;83.10;;;;;;5047024;28;20033;-56
2023/03/16 04:44:12;;;;;;;15.55;4.85;;;7.90;83.10;;;;;;5046912;28;20044;-56
2023/03/16 04:46:38;;;;;;;12.65;4.70;;;7.90;82.40;;;;;;5046534;28;20048;-56
2023/03/16 04:49:04;;;;;;;14.18;4.68;;;7.90;82.40;;;;;;5046884;28;20039;-55
2023/03/16 04:51:30;;;;;;;11.55;4.60;;;7.80;82.30;;;;;;5046425;28;20029;-56
2023/03/16 04:53:55;;;;;;;16.35;5.00;;;7.90;82.40;;;;;;5047945;28;20048;-56
2023/03/16 04:56:22;;;;;;;9.90;5.38;;;7.80;82.40;;;;;;5030153;28;20335;-56
2023/03/16 04:58:48;;;;;;;14.52;5.45;;;7.80;82.30;;;;;;5046853;28;20068;-56
2023/03/16 05:01:14;;;;;;;10.23;5.07;;;7.80;82.40;;;;;;5046438;28;20041;-55
2023/03/16 05:03:39;;;;;;;14.50;5.18;;;7.70;82.30;;;;;;5047823;28;20029;-56
2023/03/16 05:06:05;;;;;;;14.20;5.20;;;7.80;82.40;;;;;;5046496;28;20060;-56
2023/03/16 05:08:31;;;;;;;13.98;4.80;;;7.70;82.40;;;;;;5047893;28;20129;-56
2023/03/16 05:10:57;;;;;;;10.35;4.70;;;7.70;82.40;;;;;;5046223;28;20029;-56
2023/03/16 05:13:23;;;;;;;14.52;5.07;;;7.70;82.40;;;;;;5046242;28;20025;-56
2023/03/16 05:15:48;;;;;;;13.85;4.90;;;7.70;82.40;;;;;;5046261;28;20361;-56
2023/03/16 05:18:14;;;;;;;9.90;4.78;;;7.70;82.40;;;;;;5046161;28;20080;-56
2023/03/16 05:20:40;;;;;;;9.80;4.80;;;7.70;82.50;;;;;;5047112;28;20044;-56
2023/03/16 05:23:07;;;;;;;13.05;4.22;;;7.70;82.50;;;;;;5047395;28;20071;-56
2023/03/16 05:25:33;;;;;;;14.70;4.65;;;7.70;82.50;;;;;;5045906;28;20029;-56
2023/03/16 05:27:58;;;;;;;11.40;4.22;;;7.60;82.50;;;;;;5045942;28;20040;-56
2023/03/16 05:30:25;;;;;;;10.60;4.57;;;7.60;82.40;;;;;;5045863;28;20032;-56
2023/03/16 05:32:50;;;;;;;10.63;4.57;;;7.70;82.50;;;;;;5047121;28;20167;-56
2023/03/16 05:35:16;;;;;;;10.50;4.35;;;7.60;82.40;;;;;;5045086;28;20137;-55
2023/03/16 05:37:42;;;;;;;11.90;4.10;;;7.60;82.40;;;;;;5047258;28;20029;-56
2023/03/16 05:40:13;;;;;;;11.20;4.10;;;7.60;82.40;;;;;;5029064;28;20029;-56
2023/03/16 05:42:38;;;;;;;9.10;4.13;;;7.60;82.50;;;;;;5046925;28;20113;-56
2023/03/16 05:45:05;;;;;;;9.82;4.50;;;7.60;82.40;;;;;;5046944;28;20239;-56
2023/03/16 05:47:30;;;;;;;11.75;3.83;;;7.60;82.50;;;;;;5046989;28;20030;-56
2023/03/16 05:49:56;;;;;;;13.95;3.80;;;7.50;82.50;;;;;;5045372;28;20033;-56
2023/03/16 05:52:24;;;;;;;9.15;3.83;;;7.50;82.70;;;;;;5046915;28;20038;-56
2023/03/16 05:54:49;;;;;;;10.40;4.40;;;7.50;82.60;;;;;;5045422;28;20018;-56
2023/03/16 05:57:15;;;;;;;9.07;4.35;;;7.50;82.60;;;;;;5046943;28;20036;-56
2023/03/16 05:59:40;;;;;;;10.90;4.22;;;7.50;82.70;;;;;;5046796;28;20044;-56
2023/03/16 06:02:09;;;;;;;8.95;3.78;;;7.50;82.70;;;;;;5046692;28;20397;-56
2023/03/16 06:04:35;;;;;;;8.82;3.60;;;7.40;82.70;;;;;;5045019;28;20036;-56
2023/03/16 06:07:01;;;;;;;8.90;3.22;;;7.50;82.80;;;;;;5045222;28;20112;-56
2023/03/16 06:09:26;;;;;;;10.02;3.85;;;7.40;82.80;;;;;;5046602;28;20162;-56
2023/03/16 06:11:52;;;;;;;7.05;3.55;;;7.40;82.70;;;;;;5046457;28;20033;-56
2023/03/16 06:14:17;;;;;;;9.43;3.78;;;7.40;82.70;;;;;;5046559;28;20025;-56
2023/03/16 06:16:43;;;;;;;6.78;3.67;;;7.40;82.70;;;;;;5045220;28;20116;-56
2023/03/16 06:19:08;;;;;;;7.35;3.97;;;7.40;82.70;;;;;;5045155;28;20026;-56
2023/03/16 06:21:34;;;;;;;6.95;3.60;;;7.40;83.40;;;;;;5045141;28;20434;-56
2023/03/16 06:24:00;;;;;;;5.70;3.50;;;7.40;82.80;;;;;;5044994;28;20033;-56
2023/03/16 06:26:26;;;;;;;8.52;3.85;;;7.40;82.80;;;;;;5046449;28;20068;-56
2023/03/16 06:28:52;;;;;;;8.80;3.42;;;7.40;82.80;;;;;;5046397;28;20409;-56
2023/03/16 06:31:17;;;;;;;7.80;3.10;;;7.30;82.70;;;;;;5078096;28;20547;-56
2023/03/16 06:33:43;;;;;;;8.20;3.35;;;7.30;82.70;;;;;;5044909;28;20056;-56
2023/03/16 06:36:08;;;;;;;6.53;3.42;;;7.40;82.80;;;;;;5044773;28;20442;-56
2023/03/16 06:38:34;;;;;;;5.72;3.08;;;7.30;82.70;;;;;;5046062;28;20033;-56
2023/03/16 06:41:00;;;;;;;6.90;3.33;;;7.30;82.80;;;;;;5044596;28;20051;-55
2023/03/16 06:43:26;;;;;;;9.63;3.88;;;7.30;82.70;;;;;;5044534;28;20029;-56
2023/03/16 06:45:52;;;;;;;10.57;3.58;;;7.30;82.70;;;;;;5044479;28;20032;-56
2023/03/16 06:48:17;;;;;;;7.40;3.60;;;7.30;82.70;;;;;;5044618;28;20450;-56
2023/03/16 06:50:45;;;;;;;8.38;3.10;;;7.30;82.70;;;;;;5044030;28;20045;-56
2023/03/16 06:53:10;;;;;;;6.57;3.50;;;7.30;82.80;;;;;;5045810;28;20072;-56
2023/03/16 06:55:36;;;;;;;11.20;3.30;;;7.30;82.80;;;;;;5044358;28;20034;-56
2023/03/16 06:58:01;;;;;;;7.43;3.20;;;7.40;82.80;;;;;;5045466;28;20036;-55
2023/03/16 07:00:27;;;;;;;8.88;3.63;;;7.30;82.80;;;;;;5027915;28;20241;-56
2023/03/16 07:02:53;;;;;;;6.78;2.97;;;7.20;82.80;;;;;;5060765;28;20163;-56
2023/03/16 07:05:18;;;;;;;8.10;3.20;;;7.20;82.90;;;;;;5031763;28;20029;-56
2023/03/16 07:07:44;;;;;;;7.20;3.17;;;7.20;82.80;;;;;;5041297;28;20026;-56
2023/03/16 07:10:14;;;;;;;5.47;3.00;;;7.20;82.90;;;;;;5026319;28;20026;-56
2023/03/16 07:12:41;;;;;;;6.15;3.10;;;7.30;82.90;;;;;;5042146;28;20107;-56
2023/03/16 07:15:06;;;;;;;10.23;3.13;;;7.20;82.90;;;;;;5043286;28;20033;-56
2023/03/16 07:17:32;;;;;;;5.80;2.70;;;7.20;82.90;;;;;;5043457;28;20025;-56
2023/03/16 07:19:57;;;;;;;7.82;3.10;;;7.20;83.00;;;;;;5044524;28;20048;-56
2023/03/16 07:22:23;;;;;;;9.63;2.97;;;7.20;82.90;;;;;;5042723;28;20029;-56
2023/03/16 07:24:56;;;;;;;8.68;3.25;;;7.20;83.00;;;;;;5043099;28;20044;-56
2023/03/16 07:27:24;;;;;;;7.65;3.10;;;7.20;83.10;;;;;;5043789;28;20369;-56
2023/03/16 07:29:51;;;;;;;7.97;3.30;;;7.20;83.00;;;;;;5043111;28;20033;-56
2023/03/16 07:32:17;;;;;;;8.93;3.40;;;7.20;83.00;;;;;;5042090;28;20029;-56
2023/03/16 07:34:42;;;;;;;7.75;3.03;;;7.20;83.00;;;;;;5041593;28;20025;-56
2023/03/16 07:37:08;;;;;;;6.70;3.00;;;7.20;83.00;;;;;;5041286;28;20040;-56
2023/03/16 07:39:35;;;;;;;7.72;2.55;;;7.20;82.90;;;;;;5041208;28;20057;-56
2023/03/16 07:42:00;;;;;;;9.73;2.95;;;7.30;82.90;;;;;;5044572;28;20060;-56
2023/03/16 07:44:26;;;;;;;32.58;4.30;;;7.20;83.00;;;;;;5043143;28;20029;-56
2023/03/16 07:46:52;;;;;;;7.40;3.20;;;7.20;82.90;;;;;;5042719;28;20037;-56
2023/03/16 07:49:17;;;;;;;10.80;2.88;;;7.20;82.90;;;;;;5042153;28;20040;-56
2023/03/16 07:51:43;;;;;;;6.85;2.97;;;7.20;82.90;;;;;;5042989;28;20068;-56
2023/03/16 07:54:09;;;;;;;8.93;3.05;;;7.20;82.90;;;;;;5044637;28;20025;-56
2023/03/16 07:56:35;;;;;;;14.43;3.60;;;7.20;83.00;;;;;;5048090;28;20017;-56
2023/03/16 07:59:00;;;;;;;20.92;3.85;;;7.20;83.00;;;;;;5054956;28;20036;-56
2023/03/16 08:01:29;;;;;;;18.42;4.05;;;7.20;83.10;;;;;;5034884;28;20036;-56
2023/03/16 08:03:54;;;;;;;15.50;3.45;;;7.20;83.20;;;;;;5026099;28;20044;-56
2023/03/16 08:06:20;;;;;;;24.73;3.97;;;7.30;83.20;;;;;;5050426;28;20057;-56
2023/03/16 08:08:46;;;;;;;34.03;5.35;;;7.30;83.20;;;;;;5044234;28;20033;-56
2023/03/16 08:11:12;;;;;;;17.00;4.20;;;7.40;83.40;;;;;;5048621;28;20057;-56
2023/03/16 08:13:37;;;;;;;26.70;4.63;;;7.30;83.40;;;;;;5041896;28;20029;-55
2023/03/16 08:16:04;;;;;;;27.48;4.57;;;7.30;83.30;;;;;;5038639;28;20457;-56
2023/03/16 08:18:29;;;;;;;25.15;4.55;;;7.40;83.50;;;;;;5021219;28;20029;-56
2023/03/16 08:20:56;;;;;;;36.80;4.75;;;7.40;83.30;;;;;;5023937;28;20056;-56
2023/03/16 08:23:22;;;;;;;30.20;5.03;;;7.40;83.30;;;;;;5038556;28;20093;-56
2023/03/16 08:25:52;;;;;;;26.48;5.72;;;7.40;83.40;;;;;;5019919;28;20044;-56
2023/03/16 08:28:20;;;;;;;34.40;5.60;;;7.40;83.30;;;;;;5041980;28;20100;-56
2023/03/16 08:30:47;;;;;;;25.65;4.68;;;7.50;83.40;;;;;;5045638;28;20036;-56
2023/03/16 08:33:12;;;;;;;34.45;6.05;;;7.50;84.10;;;;;;5025112;28;20113;-56
2023/03/16 08:35:42;;;;;;;54.88;6.85;;;7.50;83.40;;;;;;5005305;28;20114;-56
2023/03/16 08:38:08;;;;;;;32.78;5.97;;;7.50;83.70;;;;;;5038257;28;20456;-56
2023/03/16 08:40:34;;;;;;;41.05;6.28;;;7.50;83.60;;;;;;5038705;28;20022;-56
2023/03/16 08:43:00;;;;;;;31.60;6.50;;;7.50;83.40;;;;;;5045801;28;20084;-56
2023/03/16 08:45:26;;;;;;;59.38;8.45;;;7.50;83.40;;;;;;5040733;28;20078;-56
2023/03/16 08:47:52;;;;;;;57.30;7.75;;;7.50;83.50;;;;;;5036254;28;20131;-56
2023/03/16 08:50:18;;;;;;;49.05;8.30;;;7.60;83.80;;;;;;5035933;28;20437;-56
2023/03/16 08:52:44;;;;;;;56.60;8.05;;;7.60;83.70;;;;;;5038897;28;20034;-56
2023/03/16 08:55:10;;;;;;;52.60;8.93;;;7.60;83.70;;;;;;5046351;28;20137;-56
2023/03/16 08:57:36;;;;;;;54.67;8.43;;;7.60;83.80;;;;;;5022211;28;20065;-56
2023/03/16 09:00:11;;;;;;;73.07;8.90;;;7.60;83.70;;;;;;5039566;28;20029;-56
2023/03/16 09:02:37;;;;;;;100.60;10.68;;;7.60;83.90;;;;;;5030090;28;20034;-56
2023/03/16 09:05:03;;;;;;;56.92;7.45;;;7.60;83.70;;;;;;5058699;28;20048;-56
2023/03/16 09:07:29;;;;;;;48.63;6.35;;;7.70;83.60;;;;;;5048017;28;20489;-56
2023/03/16 09:09:55;;;;;;;49.58;7.15;;;7.70;83.40;;;;;;5047194;28;20088;-56
2023/03/16 09:12:21;;;;;;;47.03;7.95;;;7.70;83.20;;;;;;5049952;28;20063;-56
2023/03/16 09:14:47;;;;;;;52.50;8.43;;;7.80;83.40;;;;;;5063278;28;20029;-56
2023/03/16 09:17:13;;;;;;;72.55;8.82;;;7.70;83.40;;;;;;5043070;28;20516;-56
2023/03/16 09:19:39;;;;;;;110.85;12.13;;;7.70;83.40;;;;;;5041310;28;20089;-56
2023/03/16 09:22:05;;;;;;;76.57;10.52;;;7.70;83.40;;;;;;5044748;28;20026;-56
2023/03/16 09:24:31;;;;;;;82.35;9.65;;;7.80;83.70;;;;;;5044776;28;20033;-56
2023/03/16 09:26:56;;;;;;;109.50;12.73;;;7.80;83.70;;;;;;5053087;28;20124;-56
2023/03/16 09:29:23;;;;;;;71.68;9.75;;;7.80;83.70;;;;;;5045998;28;20030;-56
2023/03/16 09:31:49;;;;;;;46.53;8.68;;;7.90;83.60;;;;;;5046542;28;20038;-56
2023/03/16 09:34:15;;;;;;;69.60;8.95;;;7.90;83.20;;;;;;5042019;28;20041;-56
2023/03/16 09:36:40;;;;;;;67.22;10.90;;;7.90;83.20;;;;;;5051573;28;20038;-56
2023/03/16 09:39:06;;;;;;;74.80;11.27;;;7.90;84.10;;;;;;5077096;28;20048;-56
2023/03/16 09:41:47;;;;;;;71.97;10.07;;;7.90;83.60;;;;;;5062826;28;20089;-56
2023/03/16 09:44:35;;;;;;;87.32;11.55;;;8.00;83.60;;;;;;5052811;28;20026;-56
2023/03/16 09:47:00;;;;;;;96.35;12.10;;;7.90;83.50;;;;;;5053302;28;20041;-56
2023/03/16 09:49:27;;;;;;;84.60;10.88;;;8.00;83.60;;;;;;5046235;28;20026;-56
2023/03/16 09:52:12;;;;;;;93.57;11.95;;;8.00;83.60;;;;;;5043714;28;20102;-56
2023/03/16 09:55:02;;;;;;;78.30;11.37;;;8.00;83.50;;;;;;5050071;28;20083;-56
2023/03/16 09:57:35;;;;;;;123.20;15.80;;;8.10;83.20;;;;;;5047210;28;20176;-56
2023/03/16 10:00:24;;;;;;;110.30;14.15;;;8.20;83.10;;;;;;5063345;28;20043;-56
2023/03/16 10:03:00;;;;;;;92.93;11.77;;;8.10;83.10;;;;;;5052057;28;20098;-56
2023/03/16 10:05:26;;;;;;;;;;;8.20;83.10;;;;;;5045440;28;20037;-55
2023/03/16 10:07:52;;;;;;;;;;;8.20;83.00;;;;;;5092526;28;19913;-56
2023/03/16 10:10:41;;;;;;;87.80;10.25;;;8.20;82.70;;;;;;5059078;28;19916;-56
2023/03/16 10:13:39;;;;;;;67.28;10.02;;;8.30;82.60;;;;;;5047696;28;20192;-56
2023/03/16 10:16:08;;;;;;;85.25;10.50;;;8.30;82.50;;;;;;5033172;28;20029;-56
2023/03/16 10:18:49;;;;;;;51.95;10.50;;;8.30;82.40;;;;;;5067198;28;20033;-56
2023/03/16 10:21:17;;;;;;;74.13;9.98;;;8.30;82.30;;;;;;5028354;28;20030;-56
2023/03/16 10:23:43;;;;;;;81.57;9.18;;;8.40;82.40;;;;;;5063695;28;20037;-56
2023/03/16 10:26:12;;;;;;;77.50;10.38;;;8.40;82.20;;;;;;5041432;28;20025;-56
2023/03/16 10:28:38;;;;;;;77.28;9.85;;;8.40;82.10;;;;;;5034863;28;20089;-55
2023/03/16 10:31:04;;;;;;;68.88;10.85;;;8.40;82.20;;;;;;5039184;28;20029;-56
2023/03/16 10:33:33;;;;;;;93.13;12.90;;;8.50;82.20;;;;;;5054113;28;20184;-56
2023/03/16 10:36:24;;;;;;;82.15;10.95;;;8.50;82.20;;;;;;5044760;28;20445;-54
2023/03/16 10:38:58;;;;;;;98.47;9.90;;;8.50;82.10;;;;;;5067747;28;20113;-56
2023/03/16 10:41:31;;;;;;;65.22;9.75;;;8.60;82.00;;;;;;5041236;28;20053;-56
2023/03/16 10:44:05;;;;;;;60.83;9.52;;;8.60;81.80;;;;;;5036471;28;20033;-55
2023/03/16 10:46:38;;;;;;;77.35;12.20;;;8.60;81.90;;;;;;5026556;28;20116;-56
2023/03/16 10:49:03;;;;;;;69.75;10.68;;;8.60;82.00;;;;;;5045191;28;20030;-56
2023/03/16 10:51:33;;;;;;;75.38;10.32;;;8.70;82.10;;;;;;5048995;28;20051;-56
2023/03/16 10:54:14;;;;;;;72.05;10.23;;;8.70;81.80;;;;;;5049458;28;20033;-56
2023/03/16 10:56:39;;;;;;;81.43;10.38;;;8.80;81.60;;;;;;5041257;28;20041;-56
2023/03/16 10:59:14;;;;;;;65.82;8.80;;;8.80;81.40;;;;;;5045348;28;20041;-56
2023/03/16 11:01:43;;;;;;;82.10;12.13;;;8.80;81.50;;;;;;5034691;28;20171;-56
2023/03/16 11:04:12;;;;;;;78.13;11.60;;;8.80;81.50;;;;;;5052713;28;20033;-56
2023/03/16 11:06:55;;;;;;;93.60;11.07;;;8.90;81.70;;;;;;5055217;28;20041;-56
2023/03/16 11:09:34;;;;;;;102.22;11.57;;;9.00;81.60;;;;;;5045801;28;20021;-56
2023/03/16 11:12:11;;;;;;;116.43;12.45;;;9.00;81.60;;;;;;5039632;28;20041;-56
2023/03/16 11:14:36;;;;;;;109.00;13.07;;;9.00;81.60;;;;;;5045359;28;20029;-56
2023/03/16 11:17:09;;;;;;;93.25;12.07;;;9.10;81.50;;;;;;5054638;28;20037;-56
2023/03/16 11:19:36;;;;;;;94.03;13.43;;;9.10;81.20;;;;;;5010279;28;20030;-55
2023/03/16 11:22:22;;;;;;;129.00;13.18;;;9.20;81.40;;;;;;5044780;28;20051;-56
2023/03/16 11:25:10;;;;;;;86.35;11.95;;;9.20;81.40;;;;;;5037528;28;20080;-56
2023/03/16 11:28:02;;;;;;;112.80;13.52;;;9.30;81.20;;;;;;5036965;28;20064;-56
2023/03/16 11:30:29;;;;;;;96.32;13.50;;;9.30;81.00;;;;;;5071244;28;20054;-56
2023/03/16 11:32:55;;;;;;;115.85;12.55;;;9.30;80.90;;;;;;5068153;28;20025;-56
2023/03/16 11:35:34;;;;;;;98.78;13.80;;;9.40;81.00;;;;;;5052937;28;20079;-56
2023/03/16 11:38:20;;;;;;;135.15;14.35;;;9.50;80.80;;;;;;5068344;28;20057;-56
2023/03/16 11:41:09;;;;;;;130.18;13.45;;;9.50;80.60;;;;;;5061204;28;20025;-55
2023/03/16 11:43:56;;;;;;;89.72;11.88;;;9.60;80.70;;;;;;5057959;28;20049;-56
2023/03/16 11:46:34;;;;;;;89.97;12.65;;;9.60;80.50;;;;;;5041853;28;20026;-56
2023/03/16 11:49:06;;;;;;;89.28;13.23;;;9.70;80.50;;;;;;5038728;28;20041;-56
2023/03/16 11:52:07;;;;;;;111.72;13.30;;;9.70;80.20;;;;;;5034698;28;20111;-55
2023/03/16 11:55:06;;;;;;;57.08;8.75;;;9.70;80.10;;;;;;5028521;28;20139;-56
2023/03/16 11:57:47;;;;;;;65.95;9.00;;;9.80;79.60;;;;;;5055559;28;20039;-56
2023/03/16 12:00:18;;;;;;;65.20;9.02;;;9.80;78.70;;;;;;5052490;28;20052;-56
2023/03/16 12:02:48;;;;;;;66.25;8.48;;;9.80;78.20;;;;;;5058899;28;20083;-56
2023/03/16 12:05:33;;;;;;;62.22;8.95;;;9.90;78.30;;;;;;5046128;28;20096;-56
2023/03/16 12:08:23;;;;;;;124.50;11.90;;;9.90;78.60;;;;;;5053556;28;20036;-55
2023/03/16 12:10:57;;;;;;;131.07;13.38;;;10.00;78.80;;;;;;5042141;28;20041;-56
2023/03/16 12:13:32;;;;;;;138.57;14.73;;;10.00;78.70;;;;;;5050458;28;20025;-56
2023/03/16 12:16:22;;;;;;;117.10;13.93;;;10.10;78.80;;;;;;5062948;28;20069;-56
2023/03/16 12:18:52;;;;;;;104.47;14.95;;;10.20;78.60;;;;;;5046001;28;20021;-53
2023/03/16 12:21:24;;;;;;;133.38;16.88;;;10.20;78.60;;;;;;5057564;28;20089;-56
2023/03/16 12:24:03;;;;;;;171.88;17.92;;;10.20;78.40;;;;;;5026956;28;20033;-55
2023/03/16 12:26:33;;;;;;;275.70;30.40;;;10.30;78.30;;;;;;5060878;28;20033;-56
2023/03/16 12:29:00;;;;;;;142.10;15.18;;;10.30;78.30;;;;;;5044564;28;20480;-56
2023/03/16 12:31:36;;;;;;;115.15;14.88;;;10.30;78.20;;;;;;5032585;28;20041;-56
2023/03/16 12:34:23;;;;;;;115.55;12.82;;;10.30;78.00;;;;;;5073702;28;20037;-56
2023/03/16 12:37:09;;;;;;;103.15;12.30;;;10.40;77.90;;;;;;5070882;28;20109;-56
2023/03/16 12:39:50;;;;;;;108.65;12.90;;;10.40;77.60;;;;;;5074702;28;20096;-56
2023/03/16 12:42:50;;;;;;;120.90;14.30;;;10.50;77.60;;;;;;5044121;28;20029;-56
2023/03/16 12:45:35;;;;;;;90.07;10.52;;;10.60;77.50;;;;;;5043798;28;20045;-55
2023/03/16 12:48:29;;;;;;;98.72;11.52;;;10.70;77.20;;;;;;5045692;28;20034;-56
2023/03/16 12:50:59;;;;;;;82.07;10.90;;;10.70;77.30;;;;;;5042919;28;20141;-56
2023/03/16 12:53:25;;;;;;;103.50;11.38;;;10.80;76.80;;;;;;5059699;28;20077;-56